Time;durP1;ratioP1;P1;durP2;ratioP2;P2;SDS_P1;SDS_P2;PMS_P1;PMS_P2;Temp;Humidity;BMP_temperature;BMP_pressure;BME280_temperature;BME280_humidity;BME280_pressure;Samples;Min_cycle;Max_cycle;Signal;HPM_P1;HPM_P2
2021/07/28 00:00:53;;;;;;;14.82;10.27;;;16.30;99.90;;;;;;5078696;28;20063;-81
2021/07/28 00:03:20;;;;;;;13.82;10.13;;;16.40;99.90;;;;;;5084072;28;20036;-80
2021/07/28 00:05:46;;;;;;;12.00;10.00;;;16.30;99.90;;;;;;5078981;28;20031;-80
2021/07/28 00:08:13;;;;;;;11.30;9.35;;;16.30;99.90;;;;;;5065641;28;20031;-79
2021/07/28 00:10:39;;;;;;;10.45;8.93;;;16.30;99.90;;;;;;5064139;28;20040;-79
2021/07/28 00:13:06;;;;;;;12.38;9.38;;;16.30;99.90;;;;;;5073201;28;20548;-79
2021/07/28 00:15:32;;;;;;;13.23;9.80;;;16.20;99.90;;;;;;5081264;28;20043;-80
2021/07/28 00:18:03;;;;;;;13.95;10.25;;;16.30;99.90;;;;;;5078851;28;20858;-80
2021/07/28 00:23:13;;;;;;;12.88;10.40;;;16.20;99.90;;;;;;5082793;28;20047;-81
2021/07/28 00:23:17;;;;;;;12.20;9.18;;;16.20;99.90;;;;;;5081393;28;20039;-78
2021/07/28 00:25:45;;;;;;;11.88;9.77;;;16.20;99.90;;;;;;5081380;28;20051;-83
2021/07/28 00:28:12;;;;;;;11.68;9.30;;;16.20;99.90;;;;;;5067326;28;20059;-81
2021/07/28 00:30:41;;;;;;;12.68;10.63;;;16.20;99.90;;;;;;5075704;28;20522;-76
2021/07/28 00:33:07;;;;;;;10.98;9.65;;;16.10;99.90;;;;;;5060091;28;20048;-79
2021/07/28 00:35:34;;;;;;;13.80;9.85;;;16.10;99.90;;;;;;5064201;28;20035;-77
2021/07/28 00:38:07;;;;;;;13.27;9.90;;;16.00;99.90;;;;;;5076410;28;20044;-77
2021/07/28 00:40:34;;;;;;;11.93;9.90;;;16.00;99.90;;;;;;5080475;28;20814;-78
2021/07/28 00:43:10;;;;;;;13.52;10.68;;;16.00;99.90;;;;;;5098197;28;20050;-78
2021/07/28 00:45:39;;;;;;;13.30;10.20;;;15.90;99.90;;;;;;5065984;28;20070;-78
2021/07/28 00:48:09;;;;;;;15.52;10.77;;;15.90;99.90;;;;;;5084699;28;20040;-78
2021/07/28 00:50:39;;;;;;;14.38;10.52;;;15.90;99.90;;;;;;5084695;28;20044;-77
2021/07/28 00:53:07;;;;;;;11.10;9.38;;;15.80;99.90;;;;;;5099144;28;20762;-79
2021/07/28 00:55:33;;;;;;;12.18;9.88;;;15.80;99.90;;;;;;5067537;28;20039;-77
2021/07/28 00:58:00;;;;;;;12.32;9.32;;;15.80;99.90;;;;;;5103545;28;20024;-78
2021/07/28 01:00:28;;;;;;;13.00;9.15;;;15.70;99.90;;;;;;5066156;28;20040;-78
2021/07/28 01:02:54;;;;;;;13.38;10.60;;;15.70;99.90;;;;;;5071543;28;20048;-77
2021/07/28 01:05:21;;;;;;;10.63;8.75;;;15.70;99.90;;;;;;5071316;28;20051;-77
2021/07/28 01:07:48;;;;;;;13.68;10.00;;;15.70;99.90;;;;;;5102436;28;20039;-78
2021/07/28 01:10:14;;;;;;;11.25;9.43;;;15.70;99.90;;;;;;5084427;28;20039;-77
2021/07/28 01:12:46;;;;;;;12.93;10.93;;;15.70;99.90;;;;;;5084123;28;20093;-78
2021/07/28 01:15:21;;;;;;;12.82;9.73;;;15.70;99.90;;;;;;5066483;28;20525;-78
2021/07/28 01:17:50;;;;;;;10.30;8.85;;;15.70;99.90;;;;;;5088718;28;20054;-77
2021/07/28 01:20:22;;;;;;;12.90;10.70;;;15.60;99.90;;;;;;5070678;28;20490;-77
2021/07/28 01:22:52;;;;;;;12.50;10.40;;;15.60;99.90;;;;;;5101980;28;20027;-77
2021/07/28 01:25:18;;;;;;;12.75;9.38;;;15.60;99.90;;;;;;5068805;28;21717;-77
2021/07/28 01:27:49;;;;;;;12.93;10.40;;;15.60;99.90;;;;;;5088681;28;20502;-77
2021/07/28 01:30:17;;;;;;;13.88;10.38;;;15.50;99.90;;;;;;5100545;27;20043;-77
2021/07/28 01:32:45;;;;;;;12.02;9.32;;;15.50;99.90;;;;;;5102170;28;20039;-77
2021/07/28 01:35:15;;;;;;;14.93;11.25;;;15.50;99.90;;;;;;5086917;28;20038;-78
2021/07/28 01:37:44;;;;;;;12.27;10.63;;;15.50;99.90;;;;;;5088109;28;20044;-79
2021/07/28 01:40:13;;;;;;;13.25;10.32;;;15.50;99.90;;;;;;5069143;28;20514;-79
2021/07/28 01:42:44;;;;;;;11.85;9.63;;;15.40;99.90;;;;;;5073075;28;20043;-78
2021/07/28 01:45:15;;;;;;;12.45;10.77;;;15.40;99.90;;;;;;5100526;28;20043;-77
2021/07/28 01:47:41;;;;;;;15.43;10.63;;;15.40;99.90;;;;;;5097890;28;20390;-78
2021/07/28 01:50:12;;;;;;;14.52;10.70;;;15.40;99.90;;;;;;5068536;28;20027;-78
2021/07/28 01:52:39;;;;;;;15.27;10.85;;;15.40;99.90;;;;;;5081641;28;20039;-78
2021/07/28 01:55:07;;;;;;;13.60;10.88;;;15.40;99.90;;;;;;5084379;28;20035;-78
2021/07/28 01:57:34;;;;;;;17.48;10.75;;;15.30;99.90;;;;;;5063497;28;20039;-78
2021/07/28 02:00:01;;;;;;;14.20;10.90;;;15.40;99.90;;;;;;5078022;28;20039;-77
2021/07/28 02:02:34;;;;;;;13.68;10.43;;;15.30;99.90;;;;;;5049264;28;20039;-78
2021/07/28 02:05:02;;;;;;;14.48;10.27;;;15.30;99.90;;;;;;5054174;28;20059;-80
2021/07/28 02:07:29;;;;;;;15.68;10.55;;;15.30;99.90;;;;;;5068425;28;20054;-80
2021/07/28 02:09:56;;;;;;;14.63;10.35;;;15.30;99.90;;;;;;5083776;28;20052;-79
2021/07/28 02:12:22;;;;;;;15.90;11.43;;;15.20;99.90;;;;;;5090908;28;20042;-79
2021/07/28 02:14:49;;;;;;;13.90;11.40;;;15.30;99.90;;;;;;5085491;28;20054;-79
2021/07/28 02:17:15;;;;;;;14.57;11.20;;;15.30;99.90;;;;;;5073231;28;20545;-81
2021/07/28 02:19:42;;;;;;;15.13;11.35;;;15.40;99.90;;;;;;5086292;28;20214;-79
2021/07/28 02:22:08;;;;;;;15.00;11.30;;;15.40;99.90;;;;;;5087453;28;20036;-81
2021/07/28 02:24:35;;;;;;;15.13;11.82;;;15.50;99.90;;;;;;5106427;28;20046;-78
2021/07/28 02:27:01;;;;;;;14.93;11.90;;;15.60;99.90;;;;;;5068516;28;20058;-78
2021/07/28 02:29:28;;;;;;;14.07;11.15;;;15.60;99.90;;;;;;5069506;28;20494;-79
2021/07/28 02:31:54;;;;;;;15.20;11.30;;;15.70;99.90;;;;;;5103471;27;20047;-78
2021/07/28 02:34:21;;;;;;;18.45;12.05;;;15.80;99.90;;;;;;5068735;28;20047;-79
2021/07/28 02:36:47;;;;;;;15.65;11.82;;;15.80;99.90;;;;;;5088219;28;20044;-79
2021/07/28 02:39:14;;;;;;;17.90;12.10;;;15.90;99.90;;;;;;5037776;28;20044;-78
2021/07/28 02:41:40;;;;;;;15.63;11.38;;;15.90;99.90;;;;;;5067230;28;20520;-78
2021/07/28 02:44:06;;;;;;;16.27;11.82;;;16.00;99.90;;;;;;5066129;28;20387;-78
2021/07/28 02:46:33;;;;;;;15.32;12.13;;;16.00;99.90;;;;;;5087127;28;20786;-78
2021/07/28 02:48:59;;;;;;;13.80;10.07;;;16.10;99.90;;;;;;5104807;28;20035;-82
2021/07/28 02:51:25;;;;;;;12.68;10.63;;;16.10;99.90;;;;;;5054996;28;20071;-79
2021/07/28 02:53:52;;;;;;;13.45;11.43;;;16.10;99.90;;;;;;5106543;28;20481;-79
2021/07/28 02:56:18;;;;;;;14.95;10.60;;;16.10;99.90;;;;;;5086711;28;20039;-78
2021/07/28 02:58:45;;;;;;;14.93;11.25;;;16.10;99.90;;;;;;5070727;28;20047;-79
2021/07/28 03:01:11;;;;;;;14.85;10.52;;;16.10;99.90;;;;;;5070897;28;20475;-79
2021/07/28 03:03:37;;;;;;;14.35;10.50;;;16.10;99.90;;;;;;5066618;28;20414;-79
2021/07/28 03:06:04;;;;;;;15.10;11.55;;;16.10;99.90;;;;;;5088516;28;20038;-78
2021/07/28 03:08:31;;;;;;;17.30;11.77;;;16.20;99.90;;;;;;5055277;28;20028;-79
2021/07/28 03:10:59;;;;;;;16.63;11.43;;;16.20;99.90;;;;;;5084617;28;20035;-78
2021/07/28 03:13:25;;;;;;;15.45;11.25;;;16.30;99.90;;;;;;5087286;28;20032;-79
2021/07/28 03:15:52;;;;;;;13.35;10.43;;;16.30;99.90;;;;;;5087660;28;20046;-79
2021/07/28 03:18:19;;;;;;;14.05;9.93;;;16.30;99.90;;;;;;5067701;28;20054;-79
2021/07/28 03:20:46;;;;;;;15.43;11.00;;;16.40;99.90;;;;;;5086326;28;20066;-79
2021/07/28 03:23:12;;;;;;;15.27;10.98;;;16.40;99.90;;;;;;5090027;28;20039;-79
2021/07/28 03:25:39;;;;;;;15.15;11.75;;;16.40;99.90;;;;;;5033963;28;20809;-79
2021/07/28 03:28:05;;;;;;;13.40;11.48;;;16.40;99.90;;;;;;5106587;28;20031;-79
2021/07/28 03:30:31;;;;;;;15.32;11.85;;;16.40;99.90;;;;;;5105550;28;20035;-79
2021/07/28 03:32:58;;;;;;;18.75;10.90;;;16.40;99.90;;;;;;5083548;28;20246;-79
2021/07/28 03:35:25;;;;;;;14.25;10.70;;;16.40;99.90;;;;;;5084050;28;20058;-79
2021/07/28 03:37:51;;;;;;;13.07;10.93;;;16.40;99.90;;;;;;5082553;28;20048;-79
2021/07/28 03:40:17;;;;;;;17.20;11.50;;;16.40;99.90;;;;;;5046758;28;20062;-79
2021/07/28 03:42:46;;;;;;;18.80;12.18;;;16.50;99.90;;;;;;5069840;28;20063;-79
2021/07/28 03:45:12;;;;;;;16.67;11.68;;;16.40;99.90;;;;;;5051898;28;20027;-79
2021/07/28 03:47:38;;;;;;;16.77;12.13;;;16.40;99.90;;;;;;5061392;28;20059;-81
2021/07/28 03:50:06;;;;;;;13.30;10.32;;;16.50;99.90;;;;;;5106628;28;20023;-83
2021/07/28 03:52:32;;;;;;;14.30;11.60;;;16.50;99.90;;;;;;5088812;28;20036;-80
2021/07/28 03:54:58;;;;;;;15.15;11.35;;;16.50;99.90;;;;;;5087895;28;20032;-80
2021/07/28 03:57:25;;;;;;;15.05;11.35;;;16.50;99.90;;;;;;5070615;28;20042;-80
2021/07/28 03:59:51;;;;;;;14.73;11.70;;;16.50;99.90;;;;;;5105917;28;20485;-81
2021/07/28 04:02:17;;;;;;;16.90;11.52;;;16.50;99.90;;;;;;5107535;28;20367;-82
2021/07/28 04:04:44;;;;;;;15.43;11.35;;;16.50;99.90;;;;;;5104750;28;20050;-80
2021/07/28 04:07:11;;;;;;;19.70;13.63;;;16.50;99.90;;;;;;5072819;28;20039;-80
2021/07/28 04:09:38;;;;;;;15.63;12.20;;;16.50;99.90;;;;;;5071976;28;20043;-81
2021/07/28 04:12:05;;;;;;;16.98;11.90;;;16.50;99.90;;;;;;5072679;28;20473;-81
2021/07/28 04:14:32;;;;;;;18.35;11.73;;;16.50;99.90;;;;;;5091966;28;20051;-81
2021/07/28 04:16:58;;;;;;;15.43;11.55;;;16.50;99.90;;;;;;5088572;28;20485;-80
2021/07/28 04:19:25;;;;;;;17.27;11.05;;;16.50;99.90;;;;;;5085771;28;20592;-80
2021/07/28 04:21:51;;;;;;;13.07;11.10;;;16.50;99.90;;;;;;5085426;28;20035;-79
2021/07/28 04:24:17;;;;;;;13.48;12.07;;;16.50;99.90;;;;;;5067434;28;20051;-79
2021/07/28 04:26:44;;;;;;;14.10;10.75;;;16.50;99.90;;;;;;5083941;28;20390;-80
2021/07/28 04:29:10;;;;;;;13.43;11.15;;;16.60;99.90;;;;;;5087022;28;20047;-80
2021/07/28 04:31:37;;;;;;;12.35;10.02;;;16.60;99.90;;;;;;5052249;28;20054;-83
2021/07/28 04:34:03;;;;;;;12.98;10.38;;;16.60;99.90;;;;;;5054562;28;20498;-83
2021/07/28 04:36:29;;;;;;;12.07;10.25;;;16.60;99.90;;;;;;5055220;28;20036;-83
2021/07/28 04:38:56;;;;;;;14.82;10.25;;;16.60;99.90;;;;;;5059870;28;20039;-83
2021/07/28 04:41:22;;;;;;;12.60;10.45;;;16.60;99.90;;;;;;5071800;28;20063;-82
2021/07/28 04:43:50;;;;;;;13.43;10.57;;;16.70;99.90;;;;;;5021950;28;20108;-83
2021/07/28 04:46:17;;;;;;;11.65;9.20;;;16.70;99.90;;;;;;5070697;28;20039;-83
2021/07/28 04:48:44;;;;;;;14.02;10.35;;;16.70;99.90;;;;;;5054477;28;20515;-83
2021/07/28 04:51:10;;;;;;;11.05;9.38;;;16.70;99.90;;;;;;5038809;28;20035;-83
2021/07/28 04:53:36;;;;;;;12.18;9.68;;;16.70;99.90;;;;;;5070018;28;20047;-83
2021/07/28 04:56:03;;;;;;;12.00;9.80;;;16.70;99.90;;;;;;5019190;28;20047;-83
2021/07/28 04:58:30;;;;;;;12.20;9.55;;;16.70;99.90;;;;;;5070563;28;20059;-83
2021/07/28 05:00:57;;;;;;;14.10;10.60;;;16.80;99.90;;;;;;5052569;28;20040;-83
2021/07/28 05:03:23;;;;;;;14.18;9.70;;;16.80;99.90;;;;;;5038002;28;20154;-83
2021/07/28 05:05:50;;;;;;;10.35;8.60;;;16.90;99.90;;;;;;5037170;28;20364;-84
2021/07/28 05:08:17;;;;;;;12.98;10.05;;;16.90;99.90;;;;;;5053908;28;20106;-83
2021/07/28 05:10:43;;;;;;;12.82;9.63;;;16.90;99.90;;;;;;5037826;28;20051;-84
2021/07/28 05:13:09;;;;;;;17.00;11.13;;;16.90;99.90;;;;;;5021705;28;20044;-83
2021/07/28 05:15:36;;;;;;;13.43;10.13;;;16.90;99.90;;;;;;5071302;28;20054;-84
2021/07/28 05:18:02;;;;;;;15.10;10.88;;;16.90;99.90;;;;;;5059114;28;20070;-81
2021/07/28 05:20:29;;;;;;;14.57;10.88;;;17.00;99.90;;;;;;5088099;28;20038;-81
2021/07/28 05:22:55;;;;;;;16.15;11.85;;;17.00;99.90;;;;;;5071916;28;20055;-82
2021/07/28 05:25:21;;;;;;;14.25;12.07;;;17.00;99.90;;;;;;5062986;28;20056;-81
2021/07/28 05:27:48;;;;;;;14.30;11.13;;;17.00;99.90;;;;;;5054605;28;20055;-81
2021/07/28 05:30:15;;;;;;;15.80;11.85;;;17.00;99.90;;;;;;5071439;28;20055;-82
2021/07/28 05:32:41;;;;;;;14.50;11.88;;;17.00;99.90;;;;;;5052501;28;20043;-84
2021/07/28 05:35:08;;;;;;;16.25;12.00;;;17.00;99.90;;;;;;5069787;28;20046;-81
2021/07/28 05:37:34;;;;;;;14.55;11.77;;;17.00;99.90;;;;;;5058079;28;20055;-83
2021/07/28 05:40:01;;;;;;;15.98;12.10;;;17.00;99.90;;;;;;5021776;28;20043;-83
2021/07/28 05:42:27;;;;;;;13.10;11.55;;;17.00;99.90;;;;;;5061191;28;20051;-82
2021/07/28 05:44:54;;;;;;;15.32;11.95;;;17.00;99.90;;;;;;5072992;28;20063;-83
2021/07/28 05:47:21;;;;;;;14.30;11.07;;;17.10;99.90;;;;;;5057958;28;20062;-83
2021/07/28 05:49:47;;;;;;;16.33;12.27;;;17.10;99.90;;;;;;5041691;28;20051;-83
2021/07/28 05:52:13;;;;;;;14.25;11.40;;;17.10;99.90;;;;;;5074721;28;20125;-82
2021/07/28 05:54:40;;;;;;;12.23;10.93;;;17.20;99.90;;;;;;5055716;28;20483;-83
2021/07/28 05:57:06;;;;;;;13.40;10.38;;;17.20;99.90;;;;;;5075945;28;20047;-82
2021/07/28 05:59:33;;;;;;;15.65;12.52;;;17.20;99.90;;;;;;5038169;28;20051;-83
2021/07/28 06:01:59;;;;;;;12.73;11.27;;;17.30;99.90;;;;;;5055277;28;20051;-83
2021/07/28 06:04:26;;;;;;;15.15;13.52;;;17.30;99.90;;;;;;5022905;28;20054;-83
2021/07/28 06:06:52;;;;;;;16.90;13.40;;;17.40;99.90;;;;;;5056905;28;20047;-83
2021/07/28 06:09:19;;;;;;;18.83;12.82;;;17.40;99.90;;;;;;5040848;28;20514;-83
2021/07/28 06:11:45;;;;;;;13.73;12.23;;;17.40;99.90;;;;;;5058889;28;20506;-84
2021/07/28 06:14:11;;;;;;;17.42;14.15;;;17.40;99.90;;;;;;5053414;28;20051;-80
2021/07/28 06:16:39;;;;;;;15.30;13.25;;;17.40;99.90;;;;;;5071532;28;20054;-79
2021/07/28 06:19:05;;;;;;;15.50;13.25;;;17.50;99.90;;;;;;5089670;28;20040;-80
2021/07/28 06:21:31;;;;;;;20.60;15.50;;;17.50;99.90;;;;;;5037223;28;20063;-81
2021/07/28 06:24:01;;;;;;;19.02;14.57;;;17.60;99.90;;;;;;5035555;28;20056;-80
2021/07/28 06:26:28;;;;;;;19.00;16.40;;;17.60;99.90;;;;;;5055177;28;20055;-81
2021/07/28 06:28:55;;;;;;;20.30;16.40;;;17.60;99.90;;;;;;5070769;28;20494;-81
2021/07/28 06:31:21;;;;;;;20.05;16.65;;;17.60;99.90;;;;;;5055029;28;20058;-81
2021/07/28 06:33:47;;;;;;;21.90;16.48;;;17.70;99.90;;;;;;5055294;28;20046;-81
2021/07/28 06:36:14;;;;;;;18.20;15.98;;;17.80;99.90;;;;;;5104834;28;20408;-80
2021/07/28 06:38:40;;;;;;;17.55;14.82;;;17.80;99.90;;;;;;5054555;28;20054;-81
2021/07/28 06:41:08;;;;;;;19.35;15.95;;;17.90;99.90;;;;;;5025784;27;20047;-81
2021/07/28 06:43:34;;;;;;;16.98;15.15;;;17.90;99.90;;;;;;5093337;28;20042;-80
2021/07/28 06:46:01;;;;;;;19.98;15.95;;;17.90;99.90;;;;;;5029201;27;20039;-80
2021/07/28 06:48:30;;;;;;;18.30;16.25;;;18.00;99.90;;;;;;5056295;27;20051;-79
2021/07/28 06:50:56;;;;;;;20.42;17.90;;;18.10;99.90;;;;;;5063703;28;20039;-81
2021/07/28 06:53:22;;;;;;;19.10;16.08;;;18.10;99.90;;;;;;5056678;28;20052;-80
2021/07/28 06:55:55;;;;;;;20.25;15.93;;;18.10;99.90;;;;;;5074384;28;20032;-80
2021/07/28 06:58:21;;;;;;;17.10;15.25;;;18.20;99.90;;;;;;5046065;28;20047;-80
2021/07/28 07:00:48;;;;;;;16.83;14.40;;;18.30;99.90;;;;;;5076529;28;20043;-81
2021/07/28 07:03:14;;;;;;;22.15;16.85;;;18.30;99.90;;;;;;5055142;28;20379;-80
2021/07/28 07:05:42;;;;;;;17.67;15.77;;;18.40;99.90;;;;;;5057173;28;20406;-80
2021/07/28 07:08:09;;;;;;;18.80;15.85;;;18.30;99.90;;;;;;5072631;28;20032;-80
2021/07/28 07:10:35;;;;;;;19.00;17.02;;;18.30;99.90;;;;;;5076561;28;20067;-80
2021/07/28 07:13:05;;;;;;;18.73;16.23;;;18.30;99.90;;;;;;5054756;28;20145;-80
2021/07/28 07:15:31;;;;;;;18.38;16.35;;;18.30;99.90;;;;;;5046568;28;20055;-80
2021/07/28 07:17:57;;;;;;;18.20;16.40;;;18.40;99.90;;;;;;5062593;27;20144;-79
2021/07/28 07:20:24;;;;;;;17.08;14.35;;;18.50;99.90;;;;;;5057310;28;20479;-79
2021/07/28 07:22:50;;;;;;;14.40;12.60;;;18.50;99.90;;;;;;5038652;28;20039;-78
2021/07/28 07:25:17;;;;;;;13.52;11.82;;;18.70;99.90;;;;;;5039825;28;20048;-81
2021/07/28 07:27:45;;;;;;;16.17;13.90;;;18.90;99.90;;;;;;5057059;28;20040;-80
2021/07/28 07:30:11;;;;;;;14.40;12.88;;;19.00;99.90;;;;;;5073140;28;20039;-79
2021/07/28 07:32:38;;;;;;;13.02;11.73;;;19.00;99.90;;;;;;5066505;27;20513;-80
2021/07/28 07:35:05;;;;;;;14.13;10.68;;;18.90;99.90;;;;;;5044189;28;20032;-80
2021/07/28 07:37:32;;;;;;;12.27;10.98;;;18.90;99.90;;;;;;5071591;28;20074;-81
2021/07/28 07:39:58;;;;;;;14.82;10.85;;;19.00;99.90;;;;;;5072354;28;20058;-80
2021/07/28 07:42:24;;;;;;;11.55;9.75;;;19.00;99.90;;;;;;5089299;28;20055;-80
2021/07/28 07:44:53;;;;;;;15.23;10.93;;;19.00;99.90;;;;;;5054538;28;20498;-80
2021/07/28 07:47:19;;;;;;;11.45;9.98;;;18.90;99.90;;;;;;5079798;28;20035;-80
2021/07/28 07:49:45;;;;;;;12.35;9.90;;;19.00;99.90;;;;;;5071408;28;20043;-80
2021/07/28 07:52:12;;;;;;;10.10;8.82;;;18.90;99.90;;;;;;5073154;28;20047;-80
2021/07/28 07:54:38;;;;;;;9.48;8.48;;;19.10;99.90;;;;;;5088128;28;20036;-80
2021/07/28 07:57:04;;;;;;;9.73;7.82;;;19.30;99.90;;;;;;5090004;28;20043;-80
2021/07/28 07:59:31;;;;;;;11.60;7.40;;;19.50;99.90;;;;;;5071129;28;20494;-80
2021/07/28 08:01:57;;;;;;;10.27;7.50;;;19.80;99.90;;;;;;5069356;27;20039;-80
2021/07/28 08:04:24;;;;;;;9.85;7.65;;;19.90;99.90;;;;;;5054943;28;20054;-79
2021/07/28 08:06:51;;;;;;;9.10;6.30;;;20.20;99.90;;;;;;5090002;28;20039;-81
2021/07/28 08:09:18;;;;;;;8.10;6.30;;;20.30;99.90;;;;;;5072310;28;20391;-81
2021/07/28 08:11:44;;;;;;;10.73;6.53;;;20.60;99.90;;;;;;5073252;28;20039;-81
2021/07/28 08:14:10;;;;;;;6.15;5.13;;;20.70;99.90;;;;;;5070375;28;20032;-81
2021/07/28 08:16:37;;;;;;;12.63;5.57;;;20.90;99.90;;;;;;5088020;28;21537;-81
2021/07/28 08:19:12;;;;;;;6.15;4.72;;;21.00;99.90;;;;;;5070897;28;20051;-81
2021/07/28 08:21:39;;;;;;;9.70;5.50;;;20.90;99.90;;;;;;5070147;28;20825;-81
2021/07/28 08:24:05;;;;;;;8.38;4.68;;;20.70;99.90;;;;;;5069984;28;20040;-80
2021/07/28 08:26:32;;;;;;;5.60;4.13;;;20.40;99.90;;;;;;5086820;28;20039;-81
2021/07/28 08:28:58;;;;;;;6.97;3.58;;;20.40;99.90;;;;;;5068840;28;20046;-80
2021/07/28 08:31:24;;;;;;;7.13;4.68;;;20.50;99.90;;;;;;5055488;28;20491;-80
2021/07/28 08:34:11;;;;;;;5.13;3.65;;;20.50;99.90;;;;;;5048453;28;20035;-80
2021/07/28 08:36:57;;;;;;;6.15;3.35;;;20.50;99.90;;;;;;5088538;28;20039;-81
2021/07/28 08:39:23;;;;;;;7.35;4.45;;;20.50;99.90;;;;;;5069563;28;20048;-80
2021/07/28 08:41:52;;;;;;;4.80;3.28;;;20.50;99.90;;;;;;5068995;28;20486;-80
2021/07/28 08:44:21;;;;;;;5.63;3.88;;;20.50;99.90;;;;;;5102378;28;20371;-80
2021/07/28 08:46:53;;;;;;;5.82;4.03;;;20.70;99.90;;;;;;5072850;28;20051;-80
2021/07/28 08:49:19;;;;;;;4.75;3.30;;;20.90;99.90;;;;;;5071439;28;20047;-81
2021/07/28 08:51:47;;;;;;;6.72;3.53;;;20.90;99.90;;;;;;5071685;28;20051;-80
2021/07/28 08:54:13;;;;;;;6.05;2.78;;;20.90;99.90;;;;;;5071220;28;20051;-80
2021/07/28 08:56:41;;;;;;;4.43;3.30;;;20.90;99.90;;;;;;5059409;28;20051;-80
2021/07/28 08:59:32;;;;;;;6.53;3.47;;;21.00;99.90;;;;;;5056035;28;20491;-80
2021/07/28 09:02:00;;;;;;;6.25;3.28;;;21.10;99.90;;;;;;5061557;28;20565;-81
2021/07/28 09:04:27;;;;;;;6.75;3.15;;;21.10;99.90;;;;;;5087503;28;20438;-81
2021/07/28 09:06:55;;;;;;;4.43;2.75;;;21.30;99.90;;;;;;5077761;28;20047;-81
2021/07/28 09:09:21;;;;;;;5.65;2.33;;;21.60;99.90;;;;;;5072014;28;20055;-81
2021/07/28 09:11:58;;;;;;;3.22;2.10;;;21.90;99.90;;;;;;5088825;28;20032;-81
2021/07/28 09:14:29;;;;;;;5.47;1.92;;;21.90;99.90;;;;;;5054306;28;20048;-82
2021/07/28 09:17:16;;;;;;;4.32;2.05;;;21.70;99.90;;;;;;5070699;28;20052;-81
2021/07/28 09:19:46;;;;;;;3.95;1.88;;;21.50;99.90;;;;;;5073723;28;20044;-82
2021/07/28 09:22:14;;;;;;;5.50;1.60;;;21.30;99.90;;;;;;5093489;28;20038;-79
2021/07/28 09:24:43;;;;;;;3.90;1.85;;;21.10;99.90;;;;;;5057274;28;20058;-81
2021/07/28 09:27:48;;;;;;;5.13;2.40;;;21.10;99.90;;;;;;5092242;28;20486;-81
2021/07/28 09:30:18;;;;;;;6.00;2.47;;;21.00;99.90;;;;;;5094045;27;20031;-81
2021/07/28 09:33:05;;;;;;;3.55;1.90;;;21.10;99.90;;;;;;5091999;28;20767;-82
2021/07/28 09:35:47;;;;;;;4.85;1.92;;;21.30;99.90;;;;;;5091901;28;20035;-82
2021/07/28 09:38:47;;;;;;;3.58;2.10;;;21.60;99.90;;;;;;5073006;28;20054;-81
2021/07/28 09:41:26;;;;;;;3.08;1.33;;;21.90;99.90;;;;;;5057902;28;20050;-84
2021/07/28 09:43:57;;;;;;;6.43;2.10;;;22.00;99.90;;;;;;5074276;28;20051;-83
2021/07/28 09:46:30;;;;;;;3.45;1.35;;;21.90;99.90;;;;;;5108096;28;20374;-83
2021/07/28 09:49:00;;;;;;;3.40;2.00;;;21.90;99.90;;;;;;5074994;28;20394;-82
2021/07/28 09:51:32;;;;;;;3.22;1.50;;;21.90;99.90;;;;;;5090778;28;20093;-85
2021/07/28 09:54:06;;;;;;;6.25;1.67;;;21.80;99.90;;;;;;5058248;28;20044;-84
2021/07/28 09:56:55;;;;;;;2.88;1.00;;;21.90;99.90;;;;;;5058600;28;20056;-83
2021/07/28 09:59:22;;;;;;;2.42;1.20;;;22.00;99.90;;;;;;5074992;28;20050;-87
2021/07/28 10:01:49;;;;;;;3.10;1.23;;;22.10;99.90;;;;;;5058995;28;20054;-82
2021/07/28 10:04:19;;;;;;;2.92;1.25;;;22.20;99.90;;;;;;5056347;28;20043;-81
2021/07/28 10:06:52;;;;;;;3.08;1.40;;;22.40;99.80;;;;;;5092701;28;20059;-81
2021/07/28 10:09:25;;;;;;;4.00;1.20;;;22.70;99.80;;;;;;5075177;28;20398;-88
2021/07/28 10:11:57;;;;;;;3.72;1.10;;;23.00;99.20;;;;;;5089745;28;20024;-85
2021/07/28 10:14:23;;;;;;;2.67;1.15;;;23.30;98.60;;;;;;5053559;28;20050;-82
2021/07/28 10:16:52;;;;;;;2.58;1.20;;;23.60;97.60;;;;;;5089286;28;20039;-82
2021/07/28 10:19:19;;;;;;;3.70;1.42;;;23.90;97.20;;;;;;5087590;28;20101;-82
2021/07/28 10:21:47;;;;;;;3.67;1.15;;;24.10;96.60;;;;;;5055684;28;20054;-83
2021/07/28 10:24:14;;;;;;;3.70;1.05;;;24.60;96.50;;;;;;5055300;28;20055;-82
2021/07/28 10:26:48;;;;;;;2.92;1.42;;;25.00;95.70;;;;;;5074808;28;20067;-82
2021/07/28 10:29:15;;;;;;;3.30;1.27;;;25.20;95.10;;;;;;5092277;28;20039;-77
2021/07/28 10:31:51;;;;;;;2.03;1.02;;;25.20;94.30;;;;;;5115306;28;20043;-81
2021/07/28 10:34:34;;;;;;;1.92;0.90;;;24.90;93.10;;;;;;5071747;28;20055;-82
2021/07/28 10:37:02;;;;;;;2.63;1.27;;;24.50;92.80;;;;;;5071604;28;20035;-80
2021/07/28 10:39:50;;;;;;;5.45;1.00;;;24.10;93.30;;;;;;5074828;28;20043;-81
2021/07/28 10:42:39;;;;;;;3.17;1.15;;;23.80;93.30;;;;;;5074128;28;20044;-85
2021/07/28 10:45:11;;;;;;;2.85;0.75;;;23.80;93.70;;;;;;5072500;28;20042;-81
2021/07/28 10:47:51;;;;;;;4.43;1.35;;;24.10;94.10;;;;;;5070436;28;20048;-82
2021/07/28 10:50:28;;;;;;;1.58;0.75;;;24.50;93.80;;;;;;5056030;28;20051;-82
2021/07/28 10:52:57;;;;;;;7.40;1.10;;;24.80;93.30;;;;;;5056260;28;20039;-81
2021/07/28 10:55:30;;;;;;;4.63;0.85;;;24.90;92.30;;;;;;5089989;28;20051;-80
2021/07/28 10:58:09;;;;;;;3.35;0.85;;;24.70;91.80;;;;;;5073841;28;20035;-81
2021/07/28 11:00:38;;;;;;;4.30;1.00;;;24.40;91.90;;;;;;5057037;28;20069;-79
2021/07/28 11:03:08;;;;;;;2.55;0.82;;;24.00;92.30;;;;;;5089702;28;20031;-80
2021/07/28 11:05:48;;;;;;;4.43;1.45;;;23.70;92.90;;;;;;5072921;28;20048;-82
2021/07/28 11:08:22;;;;;;;3.13;1.13;;;23.50;93.30;;;;;;5056709;28;20048;-82
2021/07/28 11:11:00;;;;;;;3.17;0.90;;;23.80;93.90;;;;;;5054711;28;20494;-81
2021/07/28 11:13:29;;;;;;;3.25;1.00;;;24.30;93.30;;;;;;5059917;28;20390;-80
2021/07/28 11:16:07;;;;;;;3.63;1.23;;;24.80;92.40;;;;;;5070863;28;20105;-81
2021/07/28 11:18:44;;;;;;;1.98;0.70;;;25.00;91.60;;;;;;5089047;28;20038;-81
2021/07/28 11:21:21;;;;;;;2.63;0.90;;;24.90;91.10;;;;;;5074206;28;20850;-82
2021/07/28 11:23:55;;;;;;;3.95;0.90;;;24.70;90.90;;;;;;5055390;28;20062;-82
2021/07/28 11:26:24;;;;;;;1.75;0.77;;;25.00;91.40;;;;;;5088290;28;20058;-82
2021/07/28 11:28:56;;;;;;;3.03;0.80;;;25.70;90.60;;;;;;5107847;28;20031;-82
2021/07/28 11:31:27;;;;;;;3.08;0.63;;;26.30;89.60;;;;;;5071729;28;20055;-81
2021/07/28 11:34:09;;;;;;;1.70;0.80;;;26.30;87.80;;;;;;5088436;28;20039;-83
2021/07/28 11:36:37;;;;;;;6.38;0.85;;;26.10;86.50;;;;;;5070450;28;20036;-81
2021/07/28 11:39:15;;;;;;;2.30;0.85;;;25.70;86.20;;;;;;5071017;28;20510;-82
2021/07/28 11:41:43;;;;;;;2.55;1.10;;;25.30;86.10;;;;;;5070036;28;20040;-82
2021/07/28 11:44:10;;;;;;;4.40;1.02;;;24.80;87.40;;;;;;5071108;28;20070;-82
2021/07/28 11:46:37;;;;;;;4.22;1.00;;;24.60;88.20;;;;;;5088169;28;20043;-81
2021/07/28 11:49:05;;;;;;;3.22;0.80;;;24.30;89.20;;;;;;5071133;28;20043;-81
2021/07/28 11:51:35;;;;;;;2.25;1.00;;;24.10;89.90;;;;;;5088880;28;20039;-81
2021/07/28 11:54:06;;;;;;;3.50;0.70;;;24.20;90.20;;;;;;5058182;28;20058;-82
2021/07/28 11:56:33;;;;;;;3.92;0.80;;;24.60;90.30;;;;;;5087913;28;20043;-81
2021/07/28 11:58:59;;;;;;;2.80;0.95;;;25.10;87.00;;;;;;5105103;28;20363;-83
2021/07/28 12:01:30;;;;;;;2.20;0.80;;;25.20;85.60;;;;;;5037357;28;20447;-84
2021/07/28 12:04:08;;;;;;;3.35;0.93;;;25.20;85.70;;;;;;5053605;28;20048;-86
2021/07/28 12:06:40;;;;;;;4.80;0.70;;;25.10;84.70;;;;;;5059824;28;20051;-83
2021/07/28 12:09:10;;;;;;;;;;;24.90;84.80;;;;;;5087160;28;20039;-83
2021/07/28 12:11:46;;;;;;;4.47;1.10;;;24.80;84.30;;;;;;5070387;28;19916;-82
2021/07/28 12:14:34;;;;;;;3.08;0.80;;;25.00;84.40;;;;;;5069298;28;20028;-82
2021/07/28 12:17:17;;;;;;;4.80;1.00;;;25.30;84.50;;;;;;5071399;28;20741;-81
2021/07/28 12:19:57;;;;;;;2.65;0.70;;;25.70;84.50;;;;;;5059184;28;20040;-82
2021/07/28 12:22:43;;;;;;;2.03;0.90;;;26.30;82.20;;;;;;5074898;28;20062;-82
2021/07/28 12:25:15;;;;;;;1.60;0.85;;;26.50;81.40;;;;;;5056311;28;20043;-82
2021/07/28 12:30:25;;;;;;;3.50;0.90;;;26.50;80.80;;;;;;5089537;28;20036;-83
2021/07/28 12:33:11;;;;;;;1.52;0.70;;;26.10;79.40;;;;;;5070803;28;20904;-84
2021/07/28 12:35:56;;;;;;;2.65;1.02;;;25.70;80.80;;;;;;5064607;28;20054;-83
2021/07/28 12:38:27;;;;;;;2.15;0.85;;;25.70;80.90;;;;;;5068146;28;20040;-83
2021/07/28 12:41:00;;;;;;;4.40;1.00;;;25.70;81.40;;;;;;5084121;28;20035;-82
2021/07/28 12:43:29;;;;;;;2.90;0.75;;;25.70;80.50;;;;;;5069821;28;20047;-83
2021/07/28 12:45:57;;;;;;;4.80;1.45;;;25.60;80.50;;;;;;5054682;28;20040;-82
2021/07/28 12:48:28;;;;;;;2.50;1.08;;;25.40;80.70;;;;;;5053318;28;20044;-82